sensor_id;sensor_type;location;lat;lon;timestamp;temperature;humidity
17333;DHT22;8784;50.94667800;7.08448400;2023-10-31T00:04:31;13.30;99.90
17333;DHT22;8784;50.94667800;7.08448400;2023-10-31T00:06:59;13.40;99.90
17333;DHT22;8784;50.94667800;7.08448400;2023-10-31T00:09:26;13.40;99.90
17333;DHT22;8784;50.94667800;7.08448400;2023-10-31T00:11:53;13.40;99.90
17333;DHT22;8784;50.94667800;7.08448400;2023-10-31T00:14:20;13.40;99.90
17333;DHT22;8784;50.94667800;7.08448400;2023-10-31T00:16:46;13.40;99.90
17333;DHT22;8784;50.94667800;7.08448400;2023-10-31T00:19:14;13.40;99.90
17333;DHT22;8784;50.94667800;7.08448400;2023-10-31T00:21:41;13.30;99.90
17333;DHT22;8784;50.94667800;7.08448400;2023-10-31T00:24:09;13.40;99.90
17333;DHT22;8784;50.94667800;7.08448400;2023-10-31T00:26:36;13.40;99.90
17333;DHT22;8784;50.94667800;7.08448400;2023-10-31T00:29:03;13.40;99.90
17333;DHT22;8784;50.94667800;7.08448400;2023-10-31T00:31:30;13.40;99.90
17333;DHT22;8784;50.94667800;7.08448400;2023-10-31T00:33:57;13.40;99.90
17333;DHT22;8784;50.94667800;7.08448400;2023-10-31T00:36:24;13.50;99.90
17333;DHT22;8784;50.94667800;7.08448400;2023-10-31T00:38:50;13.50;99.90
17333;DHT22;8784;50.94667800;7.08448400;2023-10-31T00:41:19;13.50;99.90
17333;DHT22;8784;50.94667800;7.08448400;2023-10-31T00:43:45;13.50;99.90
17333;DHT22;8784;50.94667800;7.08448400;2023-10-31T00:46:12;13.60;99.90
17333;DHT22;8784;50.94667800;7.08448400;2023-10-31T00:48:39;13.60;99.90
17333;DHT22;8784;50.94667800;7.08448400;2023-10-31T00:51:06;13.60;99.90
17333;DHT22;8784;50.94667800;7.08448400;2023-10-31T00:53:33;13.50;99.90
17333;DHT22;8784;50.94667800;7.08448400;2023-10-31T00:56:01;13.50;99.90
17333;DHT22;8784;50.94667800;7.08448400;2023-10-31T00:58:29;13.50;99.90
17333;DHT22;8784;50.94667800;7.08448400;2023-10-31T01:00:57;13.50;99.90
17333;DHT22;8784;50.94667800;7.08448400;2023-10-31T01:03:24;13.40;99.90
17333;DHT22;8784;50.94667800;7.08448400;2023-10-31T01:05:51;13.40;99.90
17333;DHT22;8784;50.94667800;7.08448400;2023-10-31T01:08:17;13.30;99.90
17333;DHT22;8784;50.94667800;7.08448400;2023-10-31T01:10:45;13.30;99.90
17333;DHT22;8784;50.94667800;7.08448400;2023-10-31T01:13:12;13.30;99.90
17333;DHT22;8784;50.94667800;7.08448400;2023-10-31T01:15:41;13.30;99.90
17333;DHT22;8784;50.94667800;7.08448400;2023-10-31T01:18:07;13.20;99.90
17333;DHT22;8784;50.94667800;7.08448400;2023-10-31T01:20:34;13.20;99.90
17333;DHT22;8784;50.94667800;7.08448400;2023-10-31T01:23:01;13.20;99.90
17333;DHT22;8784;50.94667800;7.08448400;2023-10-31T01:25:28;13.20;99.90
17333;DHT22;8784;50.94667800;7.08448400;2023-10-31T01:27:55;13.20;99.90
17333;DHT22;8784;50.94667800;7.08448400;2023-10-31T01:30:22;13.10;99.90
17333;DHT22;8784;50.94667800;7.08448400;2023-10-31T01:32:50;13.00;99.90
17333;DHT22;8784;50.94667800;7.08448400;2023-10-31T01:35:17;13.00;99.90
17333;DHT22;8784;50.94667800;7.08448400;2023-10-31T01:37:44;12.90;99.90
17333;DHT22;8784;50.94667800;7.08448400;2023-10-31T01:40:13;12.90;99.90
17333;DHT22;8784;50.94667800;7.08448400;2023-10-31T01:42:40;12.90;99.90
17333;DHT22;8784;50.94667800;7.08448400;2023-10-31T01:45:08;12.80;99.90
17333;DHT22;8784;50.94667800;7.08448400;2023-10-31T01:47:35;12.80;99.90
17333;DHT22;8784;50.94667800;7.08448400;2023-10-31T01:50:04;12.80;99.90
17333;DHT22;8784;50.94667800;7.08448400;2023-10-31T01:52:33;12.80;99.90
17333;DHT22;8784;50.94667800;7.08448400;2023-10-31T01:55:02;12.80;99.90
17333;DHT22;8784;50.94667800;7.08448400;2023-10-31T01:57:29;12.90;99.90
17333;DHT22;8784;50.94667800;7.08448400;2023-10-31T01:59:56;12.90;99.90
17333;DHT22;8784;50.94667800;7.08448400;2023-10-31T02:02:23;12.90;99.90
17333;DHT22;8784;50.94667800;7.08448400;2023-10-31T02:04:50;12.90;99.90
17333;DHT22;8784;50.94667800;7.08448400;2023-10-31T02:07:19;12.80;99.90
17333;DHT22;8784;50.94667800;7.08448400;2023-10-31T02:09:46;12.80;99.90
17333;DHT22;8784;50.94667800;7.08448400;2023-10-31T02:12:31;12.80;99.90
17333;DHT22;8784;50.94667800;7.08448400;2023-10-31T02:14:58;12.80;99.90
17333;DHT22;8784;50.94667800;7.08448400;2023-10-31T02:17:24;12.90;99.90
17333;DHT22;8784;50.94667800;7.08448400;2023-10-31T02:19:51;12.90;99.90
17333;DHT22;8784;50.94667800;7.08448400;2023-10-31T02:22:20;13.00;99.90
17333;DHT22;8784;50.94667800;7.08448400;2023-10-31T02:24:47;13.00;99.90
17333;DHT22;8784;50.94667800;7.08448400;2023-10-31T02:27:13;13.00;99.90
17333;DHT22;8784;50.94667800;7.08448400;2023-10-31T02:29:40;13.00;99.90
17333;DHT22;8784;50.94667800;7.08448400;2023-10-31T02:32:07;13.00;99.90
17333;DHT22;8784;50.94667800;7.08448400;2023-10-31T02:34:34;12.90;99.90
17333;DHT22;8784;50.94667800;7.08448400;2023-10-31T02:37:01;13.00;99.90
17333;DHT22;8784;50.94667800;7.08448400;2023-10-31T02:39:29;13.00;99.90
17333;DHT22;8784;50.94667800;7.08448400;2023-10-31T02:41:56;12.90;99.90
17333;DHT22;8784;50.94667800;7.08448400;2023-10-31T02:44:23;12.80;99.90
17333;DHT22;8784;50.94667800;7.08448400;2023-10-31T02:46:50;12.80;99.90
17333;DHT22;8784;50.94667800;7.08448400;2023-10-31T02:49:17;12.80;99.90
17333;DHT22;8784;50.94667800;7.08448400;2023-10-31T02:51:44;12.80;99.90
17333;DHT22;8784;50.94667800;7.08448400;2023-10-31T02:54:11;12.70;99.90
17333;DHT22;8784;50.94667800;7.08448400;2023-10-31T02:56:39;12.70;99.90
17333;DHT22;8784;50.94667800;7.08448400;2023-10-31T02:59:06;12.70;99.90
17333;DHT22;8784;50.94667800;7.08448400;2023-10-31T03:01:33;12.70;99.90
17333;DHT22;8784;50.94667800;7.08448400;2023-10-31T03:04:00;12.70;99.90
17333;DHT22;8784;50.94667800;7.08448400;2023-10-31T03:06:27;12.70;99.90
17333;DHT22;8784;50.94667800;7.08448400;2023-10-31T03:08:53;12.70;99.90
17333;DHT22;8784;50.94667800;7.08448400;2023-10-31T03:11:21;12.70;99.90
17333;DHT22;8784;50.94667800;7.08448400;2023-10-31T03:13:50;12.80;99.90
17333;DHT22;8784;50.94667800;7.08448400;2023-10-31T03:16:17;12.80;99.90
17333;DHT22;8784;50.94667800;7.08448400;2023-10-31T03:18:43;12.80;99.90
17333;DHT22;8784;50.94667800;7.08448400;2023-10-31T03:21:10;12.80;99.90
17333;DHT22;8784;50.94667800;7.08448400;2023-10-31T03:23:41;12.80;99.90
17333;DHT22;8784;50.94667800;7.08448400;2023-10-31T03:26:07;12.80;99.90
17333;DHT22;8784;50.94667800;7.08448400;2023-10-31T03:28:34;12.80;99.90
17333;DHT22;8784;50.94667800;7.08448400;2023-10-31T03:31:03;12.80;99.90
17333;DHT22;8784;50.94667800;7.08448400;2023-10-31T03:33:30;12.80;99.90
17333;DHT22;8784;50.94667800;7.08448400;2023-10-31T03:35:57;12.90;99.90
17333;DHT22;8784;50.94667800;7.08448400;2023-10-31T03:38:24;12.90;99.90
17333;DHT22;8784;50.94667800;7.08448400;2023-10-31T03:40:51;12.90;99.90
17333;DHT22;8784;50.94667800;7.08448400;2023-10-31T03:43:18;12.90;99.90
17333;DHT22;8784;50.94667800;7.08448400;2023-10-31T03:45:46;13.00;99.90
17333;DHT22;8784;50.94667800;7.08448400;2023-10-31T03:48:16;13.00;99.90
17333;DHT22;8784;50.94667800;7.08448400;2023-10-31T03:50:43;12.90;99.90
17333;DHT22;8784;50.94667800;7.08448400;2023-10-31T03:53:10;12.90;99.90
17333;DHT22;8784;50.94667800;7.08448400;2023-10-31T03:55:37;12.90;99.90
17333;DHT22;8784;50.94667800;7.08448400;2023-10-31T03:58:04;12.90;99.90
17333;DHT22;8784;50.94667800;7.08448400;2023-10-31T04:00:31;12.90;99.90
17333;DHT22;8784;50.94667800;7.08448400;2023-10-31T04:02:58;12.90;99.90
17333;DHT22;8784;50.94667800;7.08448400;2023-10-31T04:05:26;12.80;99.90
17333;DHT22;8784;50.94667800;7.08448400;2023-10-31T04:07:53;12.80;99.90
17333;DHT22;8784;50.94667800;7.08448400;2023-10-31T04:10:20;12.80;99.90
17333;DHT22;8784;50.94667800;7.08448400;2023-10-31T04:12:48;12.80;99.90
17333;DHT22;8784;50.94667800;7.08448400;2023-10-31T04:15:14;12.70;99.90
17333;DHT22;8784;50.94667800;7.08448400;2023-10-31T04:17:41;12.80;99.90
17333;DHT22;8784;50.94667800;7.08448400;2023-10-31T04:20:09;12.70;99.90
17333;DHT22;8784;50.94667800;7.08448400;2023-10-31T04:22:37;12.70;99.90
17333;DHT22;8784;50.94667800;7.08448400;2023-10-31T04:25:05;12.70;99.90
17333;DHT22;8784;50.94667800;7.08448400;2023-10-31T04:27:32;12.70;99.90
17333;DHT22;8784;50.94667800;7.08448400;2023-10-31T04:29:58;12.80;99.90
17333;DHT22;8784;50.94667800;7.08448400;2023-10-31T04:32:25;12.80;99.90
17333;DHT22;8784;50.94667800;7.08448400;2023-10-31T04:34:52;12.70;99.90
17333;DHT22;8784;50.94667800;7.08448400;2023-10-31T04:37:19;12.70;99.90
17333;DHT22;8784;50.94667800;7.08448400;2023-10-31T04:39:47;12.80;99.90
17333;DHT22;8784;50.94667800;7.08448400;2023-10-31T04:42:14;12.80;99.90
17333;DHT22;8784;50.94667800;7.08448400;2023-10-31T04:44:41;12.90;99.90
17333;DHT22;8784;50.94667800;7.08448400;2023-10-31T04:47:08;12.90;99.90
17333;DHT22;8784;50.94667800;7.08448400;2023-10-31T04:49:35;12.90;99.90
17333;DHT22;8784;50.94667800;7.08448400;2023-10-31T04:52:02;12.90;99.90
17333;DHT22;8784;50.94667800;7.08448400;2023-10-31T04:54:29;12.90;99.90
17333;DHT22;8784;50.94667800;7.08448400;2023-10-31T04:56:57;12.90;99.90
17333;DHT22;8784;50.94667800;7.08448400;2023-10-31T04:59:24;12.90;99.90
17333;DHT22;8784;50.94667800;7.08448400;2023-10-31T05:01:51;12.90;99.90
17333;DHT22;8784;50.94667800;7.08448400;2023-10-31T05:04:18;12.90;99.90
17333;DHT22;8784;50.94667800;7.08448400;2023-10-31T05:06:45;13.00;99.90
17333;DHT22;8784;50.94667800;7.08448400;2023-10-31T05:09:13;12.90;99.90
17333;DHT22;8784;50.94667800;7.08448400;2023-10-31T05:11:40;12.90;99.90
17333;DHT22;8784;50.94667800;7.08448400;2023-10-31T05:14:09;12.90;99.90
17333;DHT22;8784;50.94667800;7.08448400;2023-10-31T05:16:40;13.00;99.90
17333;DHT22;8784;50.94667800;7.08448400;2023-10-31T05:19:07;13.00;99.90
17333;DHT22;8784;50.94667800;7.08448400;2023-10-31T05:21:34;13.00;99.90
17333;DHT22;8784;50.94667800;7.08448400;2023-10-31T05:24:01;13.10;99.90
17333;DHT22;8784;50.94667800;7.08448400;2023-10-31T05:26:28;13.10;99.90
17333;DHT22;8784;50.94667800;7.08448400;2023-10-31T05:28:56;13.00;99.90
17333;DHT22;8784;50.94667800;7.08448400;2023-10-31T05:31:24;13.00;99.90
17333;DHT22;8784;50.94667800;7.08448400;2023-10-31T05:33:51;12.90;99.90
17333;DHT22;8784;50.94667800;7.08448400;2023-10-31T05:36:19;12.90;99.90
17333;DHT22;8784;50.94667800;7.08448400;2023-10-31T05:38:46;12.90;99.90
17333;DHT22;8784;50.94667800;7.08448400;2023-10-31T05:41:14;12.90;99.90
17333;DHT22;8784;50.94667800;7.08448400;2023-10-31T05:43:41;12.80;99.90
17333;DHT22;8784;50.94667800;7.08448400;2023-10-31T05:46:08;12.90;99.90
17333;DHT22;8784;50.94667800;7.08448400;2023-10-31T05:48:38;12.80;99.90
17333;DHT22;8784;50.94667800;7.08448400;2023-10-31T05:51:11;12.80;99.90
17333;DHT22;8784;50.94667800;7.08448400;2023-10-31T05:53:40;12.90;99.90
17333;DHT22;8784;50.94667800;7.08448400;2023-10-31T05:56:08;12.90;99.90
17333;DHT22;8784;50.94667800;7.08448400;2023-10-31T05:58:35;12.90;99.90
17333;DHT22;8784;50.94667800;7.08448400;2023-10-31T06:01:02;13.00;99.90
17333;DHT22;8784;50.94667800;7.08448400;2023-10-31T06:03:29;13.00;99.90
17333;DHT22;8784;50.94667800;7.08448400;2023-10-31T06:05:57;13.00;99.90
17333;DHT22;8784;50.94667800;7.08448400;2023-10-31T06:08:25;13.00;99.90
17333;DHT22;8784;50.94667800;7.08448400;2023-10-31T06:10:53;13.10;99.90
17333;DHT22;8784;50.94667800;7.08448400;2023-10-31T06:13:20;13.10;99.90
17333;DHT22;8784;50.94667800;7.08448400;2023-10-31T06:15:47;13.10;99.90
17333;DHT22;8784;50.94667800;7.08448400;2023-10-31T06:18:14;13.10;99.90
17333;DHT22;8784;50.94667800;7.08448400;2023-10-31T06:20:41;13.10;99.90
17333;DHT22;8784;50.94667800;7.08448400;2023-10-31T06:23:09;13.10;99.90
17333;DHT22;8784;50.94667800;7.08448400;2023-10-31T06:25:36;13.10;99.90
17333;DHT22;8784;50.94667800;7.08448400;2023-10-31T06:28:04;13.10;99.90
17333;DHT22;8784;50.94667800;7.08448400;2023-10-31T06:30:31;13.10;99.90
17333;DHT22;8784;50.94667800;7.08448400;2023-10-31T06:32:58;13.00;99.90
17333;DHT22;8784;50.94667800;7.08448400;2023-10-31T06:35:26;13.00;99.90
17333;DHT22;8784;50.94667800;7.08448400;2023-10-31T06:37:55;13.00;99.90
17333;DHT22;8784;50.94667800;7.08448400;2023-10-31T06:40:24;13.00;99.90
17333;DHT22;8784;50.94667800;7.08448400;2023-10-31T06:42:51;13.00;99.90
17333;DHT22;8784;50.94667800;7.08448400;2023-10-31T06:45:18;13.00;99.90
17333;DHT22;8784;50.94667800;7.08448400;2023-10-31T06:47:45;13.00;99.90
17333;DHT22;8784;50.94667800;7.08448400;2023-10-31T06:50:12;13.00;99.90
17333;DHT22;8784;50.94667800;7.08448400;2023-10-31T06:52:39;13.00;99.90
17333;DHT22;8784;50.94667800;7.08448400;2023-10-31T06:55:07;13.10;99.90
17333;DHT22;8784;50.94667800;7.08448400;2023-10-31T06:57:35;13.10;99.90
17333;DHT22;8784;50.94667800;7.08448400;2023-10-31T07:00:03;13.10;99.90
17333;DHT22;8784;50.94667800;7.08448400;2023-10-31T07:02:33;13.00;99.90
17333;DHT22;8784;50.94667800;7.08448400;2023-10-31T07:05:00;13.00;99.90
17333;DHT22;8784;50.94667800;7.08448400;2023-10-31T07:07:28;12.90;99.90
17333;DHT22;8784;50.94667800;7.08448400;2023-10-31T07:09:55;13.00;99.90
17333;DHT22;8784;50.94667800;7.08448400;2023-10-31T07:12:22;13.00;99.90
17333;DHT22;8784;50.94667800;7.08448400;2023-10-31T07:14:50;13.10;99.90
17333;DHT22;8784;50.94667800;7.08448400;2023-10-31T07:17:16;13.10;99.90
17333;DHT22;8784;50.94667800;7.08448400;2023-10-31T07:19:43;13.10;99.90
17333;DHT22;8784;50.94667800;7.08448400;2023-10-31T07:22:10;13.20;99.90
17333;DHT22;8784;50.94667800;7.08448400;2023-10-31T07:24:37;13.20;99.90
17333;DHT22;8784;50.94667800;7.08448400;2023-10-31T07:27:04;13.20;99.90
17333;DHT22;8784;50.94667800;7.08448400;2023-10-31T07:29:31;13.20;99.90
17333;DHT22;8784;50.94667800;7.08448400;2023-10-31T07:32:00;13.20;99.90
17333;DHT22;8784;50.94667800;7.08448400;2023-10-31T07:34:28;13.20;99.90
17333;DHT22;8784;50.94667800;7.08448400;2023-10-31T07:36:55;13.20;99.90
17333;DHT22;8784;50.94667800;7.08448400;2023-10-31T07:39:23;13.20;99.90
17333;DHT22;8784;50.94667800;7.08448400;2023-10-31T07:41:49;13.10;99.90
17333;DHT22;8784;50.94667800;7.08448400;2023-10-31T07:44:16;13.20;99.90
17333;DHT22;8784;50.94667800;7.08448400;2023-10-31T07:46:43;13.20;99.90
17333;DHT22;8784;50.94667800;7.08448400;2023-10-31T07:49:11;13.10;99.90
17333;DHT22;8784;50.94667800;7.08448400;2023-10-31T07:51:38;13.20;99.90
17333;DHT22;8784;50.94667800;7.08448400;2023-10-31T07:54:06;13.20;99.90
17333;DHT22;8784;50.94667800;7.08448400;2023-10-31T07:56:35;13.30;99.90
17333;DHT22;8784;50.94667800;7.08448400;2023-10-31T07:59:02;13.50;99.90
17333;DHT22;8784;50.94667800;7.08448400;2023-10-31T08:01:29;13.50;99.90
17333;DHT22;8784;50.94667800;7.08448400;2023-10-31T08:03:56;13.60;99.90
17333;DHT22;8784;50.94667800;7.08448400;2023-10-31T08:06:24;13.60;99.90
17333;DHT22;8784;50.94667800;7.08448400;2023-10-31T08:08:51;13.60;99.90
17333;DHT22;8784;50.94667800;7.08448400;2023-10-31T08:11:18;13.50;99.90
17333;DHT22;8784;50.94667800;7.08448400;2023-10-31T08:13:45;13.60;99.90
17333;DHT22;8784;50.94667800;7.08448400;2023-10-31T08:16:17;13.70;99.90
17333;DHT22;8784;50.94667800;7.08448400;2023-10-31T08:18:45;13.90;99.90
17333;DHT22;8784;50.94667800;7.08448400;2023-10-31T08:21:12;13.90;99.90
17333;DHT22;8784;50.94667800;7.08448400;2023-10-31T08:23:41;14.00;99.90
17333;DHT22;8784;50.94667800;7.08448400;2023-10-31T08:26:10;14.00;99.90
17333;DHT22;8784;50.94667800;7.08448400;2023-10-31T08:28:38;13.90;99.90
17333;DHT22;8784;50.94667800;7.08448400;2023-10-31T08:31:05;13.90;99.90
17333;DHT22;8784;50.94667800;7.08448400;2023-10-31T08:33:32;14.10;99.90
17333;DHT22;8784;50.94667800;7.08448400;2023-10-31T08:35:59;14.20;99.90
17333;DHT22;8784;50.94667800;7.08448400;2023-10-31T08:38:26;14.30;99.90
17333;DHT22;8784;50.94667800;7.08448400;2023-10-31T08:40:56;14.30;99.90
17333;DHT22;8784;50.94667800;7.08448400;2023-10-31T08:43:23;14.30;99.90
17333;DHT22;8784;50.94667800;7.08448400;2023-10-31T08:45:50;14.30;99.90
17333;DHT22;8784;50.94667800;7.08448400;2023-10-31T08:48:17;14.40;99.90
17333;DHT22;8784;50.94667800;7.08448400;2023-10-31T08:50:44;14.30;99.90
17333;DHT22;8784;50.94667800;7.08448400;2023-10-31T08:53:11;14.30;99.90
17333;DHT22;8784;50.94667800;7.08448400;2023-10-31T08:55:38;14.30;99.90
17333;DHT22;8784;50.94667800;7.08448400;2023-10-31T08:58:07;14.40;99.90
17333;DHT22;8784;50.94667800;7.08448400;2023-10-31T09:00:34;14.30;99.90
17333;DHT22;8784;50.94667800;7.08448400;2023-10-31T09:03:01;14.30;99.90
17333;DHT22;8784;50.94667800;7.08448400;2023-10-31T09:05:28;14.40;99.90
17333;DHT22;8784;50.94667800;7.08448400;2023-10-31T09:07:55;14.40;99.90
17333;DHT22;8784;50.94667800;7.08448400;2023-10-31T09:10:22;14.50;99.90
17333;DHT22;8784;50.94667800;7.08448400;2023-10-31T09:12:49;14.50;99.90
17333;DHT22;8784;50.94667800;7.08448400;2023-10-31T09:15:17;14.50;99.90
17333;DHT22;8784;50.94667800;7.08448400;2023-10-31T09:17:45;14.50;99.90
17333;DHT22;8784;50.94667800;7.08448400;2023-10-31T09:20:12;14.50;99.90
17333;DHT22;8784;50.94667800;7.08448400;2023-10-31T09:22:39;14.40;99.90
17333;DHT22;8784;50.94667800;7.08448400;2023-10-31T09:25:07;14.40;99.90
17333;DHT22;8784;50.94667800;7.08448400;2023-10-31T09:27:34;14.30;99.90
17333;DHT22;8784;50.94667800;7.08448400;2023-10-31T09:30:01;14.30;99.90
17333;DHT22;8784;50.94667800;7.08448400;2023-10-31T09:32:30;14.20;99.90
17333;DHT22;8784;50.94667800;7.08448400;2023-10-31T09:34:57;14.20;99.90
17333;DHT22;8784;50.94667800;7.08448400;2023-10-31T09:37:24;14.20;99.90
17333;DHT22;8784;50.94667800;7.08448400;2023-10-31T09:39:51;14.20;99.90
17333;DHT22;8784;50.94667800;7.08448400;2023-10-31T09:42:18;14.20;99.90
17333;DHT22;8784;50.94667800;7.08448400;2023-10-31T09:44:45;14.20;99.90
17333;DHT22;8784;50.94667800;7.08448400;2023-10-31T09:47:15;14.20;99.90
17333;DHT22;8784;50.94667800;7.08448400;2023-10-31T09:49:44;14.20;99.90
17333;DHT22;8784;50.94667800;7.08448400;2023-10-31T09:52:11;14.20;99.90
17333;DHT22;8784;50.94667800;7.08448400;2023-10-31T09:54:38;14.20;99.90
17333;DHT22;8784;50.94667800;7.08448400;2023-10-31T09:57:06;14.30;99.90
17333;DHT22;8784;50.94667800;7.08448400;2023-10-31T09:59:33;14.30;99.90
17333;DHT22;8784;50.94667800;7.08448400;2023-10-31T10:02:00;14.40;99.90
17333;DHT22;8784;50.94667800;7.08448400;2023-10-31T10:04:27;14.50;99.90
17333;DHT22;8784;50.94667800;7.08448400;2023-10-31T10:07:00;14.40;99.90
17333;DHT22;8784;50.94667800;7.08448400;2023-10-31T10:09:27;14.40;99.90
17333;DHT22;8784;50.94667800;7.08448400;2023-10-31T10:11:55;14.40;99.90
17333;DHT22;8784;50.94667800;7.08448400;2023-10-31T10:14:23;14.50;99.90
17333;DHT22;8784;50.94667800;7.08448400;2023-10-31T10:16:50;14.50;99.90
17333;DHT22;8784;50.94667800;7.08448400;2023-10-31T10:19:18;14.60;99.90
17333;DHT22;8784;50.94667800;7.08448400;2023-10-31T10:21:50;14.60;99.90
17333;DHT22;8784;50.94667800;7.08448400;2023-10-31T10:24:22;14.70;99.90
17333;DHT22;8784;50.94667800;7.08448400;2023-10-31T10:26:50;14.70;99.90
17333;DHT22;8784;50.94667800;7.08448400;2023-10-31T10:29:18;14.80;99.90
17333;DHT22;8784;50.94667800;7.08448400;2023-10-31T10:31:45;14.80;99.90
17333;DHT22;8784;50.94667800;7.08448400;2023-10-31T10:34:14;14.90;99.90
17333;DHT22;8784;50.94667800;7.08448400;2023-10-31T10:36:46;15.00;99.90
17333;DHT22;8784;50.94667800;7.08448400;2023-10-31T10:39:19;15.10;99.90
17333;DHT22;8784;50.94667800;7.08448400;2023-10-31T10:41:51;15.30;99.90
17333;DHT22;8784;50.94667800;7.08448400;2023-10-31T10:44:19;15.30;99.90
17333;DHT22;8784;50.94667800;7.08448400;2023-10-31T10:46:54;15.40;99.90
17333;DHT22;8784;50.94667800;7.08448400;2023-10-31T10:49:24;15.50;99.90
17333;DHT22;8784;50.94667800;7.08448400;2023-10-31T10:51:53;15.60;99.90
17333;DHT22;8784;50.94667800;7.08448400;2023-10-31T10:54:31;15.70;99.90
17333;DHT22;8784;50.94667800;7.08448400;2023-10-31T10:57:03;15.70;99.90
17333;DHT22;8784;50.94667800;7.08448400;2023-10-31T10:59:39;15.80;99.90
17333;DHT22;8784;50.94667800;7.08448400;2023-10-31T11:02:08;15.90;99.90
17333;DHT22;8784;50.94667800;7.08448400;2023-10-31T11:04:36;16.00;99.90
17333;DHT22;8784;50.94667800;7.08448400;2023-10-31T11:07:05;16.10;99.90
17333;DHT22;8784;50.94667800;7.08448400;2023-10-31T11:09:34;16.20;99.90
17333;DHT22;8784;50.94667800;7.08448400;2023-10-31T11:12:02;16.20;99.90
17333;DHT22;8784;50.94667800;7.08448400;2023-10-31T11:14:33;16.10;99.90
17333;DHT22;8784;50.94667800;7.08448400;2023-10-31T11:17:04;16.00;99.90
17333;DHT22;8784;50.94667800;7.08448400;2023-10-31T11:19:34;16.00;99.90
17333;DHT22;8784;50.94667800;7.08448400;2023-10-31T11:22:02;16.00;99.90
17333;DHT22;8784;50.94667800;7.08448400;2023-10-31T11:24:31;16.00;99.90
17333;DHT22;8784;50.94667800;7.08448400;2023-10-31T11:27:01;16.00;99.90
17333;DHT22;8784;50.94667800;7.08448400;2023-10-31T11:29:30;15.90;99.90
17333;DHT22;8784;50.94667800;7.08448400;2023-10-31T11:31:58;15.90;99.90
17333;DHT22;8784;50.94667800;7.08448400;2023-10-31T11:34:27;15.90;99.90
17333;DHT22;8784;50.94667800;7.08448400;2023-10-31T11:37:18;15.90;99.90
17333;DHT22;8784;50.94667800;7.08448400;2023-10-31T11:40:15;15.90;99.90
17333;DHT22;8784;50.94667800;7.08448400;2023-10-31T11:42:46;15.90;99.90
17333;DHT22;8784;50.94667800;7.08448400;2023-10-31T11:45:26;15.90;99.90
17333;DHT22;8784;50.94667800;7.08448400;2023-10-31T11:47:54;15.90;99.90
17333;DHT22;8784;50.94667800;7.08448400;2023-10-31T11:50:21;15.90;99.90
17333;DHT22;8784;50.94667800;7.08448400;2023-10-31T11:52:59;15.90;99.90
17333;DHT22;8784;50.94667800;7.08448400;2023-10-31T11:55:27;15.90;99.90
17333;DHT22;8784;50.94667800;7.08448400;2023-10-31T11:57:55;16.00;99.90
17333;DHT22;8784;50.94667800;7.08448400;2023-10-31T12:00:23;16.00;99.90
17333;DHT22;8784;50.94667800;7.08448400;2023-10-31T12:02:58;16.10;99.90
17333;DHT22;8784;50.94667800;7.08448400;2023-10-31T12:05:25;16.10;99.90
17333;DHT22;8784;50.94667800;7.08448400;2023-10-31T12:07:53;16.10;99.90
17333;DHT22;8784;50.94667800;7.08448400;2023-10-31T12:10:23;16.10;99.90
17333;DHT22;8784;50.94667800;7.08448400;2023-10-31T12:12:51;16.10;99.90
17333;DHT22;8784;50.94667800;7.08448400;2023-10-31T12:15:20;16.10;99.90
17333;DHT22;8784;50.94667800;7.08448400;2023-10-31T12:17:47;16.10;99.90
17333;DHT22;8784;50.94667800;7.08448400;2023-10-31T12:20:14;16.20;99.90
17333;DHT22;8784;50.94667800;7.08448400;2023-10-31T12:22:42;16.30;99.90
17333;DHT22;8784;50.94667800;7.08448400;2023-10-31T12:25:11;16.40;99.90
17333;DHT22;8784;50.94667800;7.08448400;2023-10-31T12:27:45;16.40;99.90
17333;DHT22;8784;50.94667800;7.08448400;2023-10-31T12:30:12;16.40;99.90
17333;DHT22;8784;50.94667800;7.08448400;2023-10-31T12:32:43;16.50;99.90
17333;DHT22;8784;50.94667800;7.08448400;2023-10-31T12:35:12;16.50;99.90
17333;DHT22;8784;50.94667800;7.08448400;2023-10-31T12:37:44;16.50;99.90
17333;DHT22;8784;50.94667800;7.08448400;2023-10-31T12:40:12;16.60;99.90
17333;DHT22;8784;50.94667800;7.08448400;2023-10-31T12:42:42;16.60;99.90
17333;DHT22;8784;50.94667800;7.08448400;2023-10-31T12:45:10;16.60;99.90
17333;DHT22;8784;50.94667800;7.08448400;2023-10-31T12:47:38;16.60;99.90
17333;DHT22;8784;50.94667800;7.08448400;2023-10-31T12:50:12;16.60;99.90
17333;DHT22;8784;50.94667800;7.08448400;2023-10-31T12:53:00;16.50;99.90
17333;DHT22;8784;50.94667800;7.08448400;2023-10-31T12:55:30;16.60;99.90
17333;DHT22;8784;50.94667800;7.08448400;2023-10-31T12:58:04;16.80;99.90
17333;DHT22;8784;50.94667800;7.08448400;2023-10-31T13:00:33;16.80;99.90
17333;DHT22;8784;50.94667800;7.08448400;2023-10-31T13:03:04;16.90;99.90
17333;DHT22;8784;50.94667800;7.08448400;2023-10-31T13:05:34;16.90;99.90
17333;DHT22;8784;50.94667800;7.08448400;2023-10-31T13:08:01;16.90;99.90
17333;DHT22;8784;50.94667800;7.08448400;2023-10-31T13:10:30;16.90;99.90
17333;DHT22;8784;50.94667800;7.08448400;2023-10-31T13:12:58;17.10;99.90
17333;DHT22;8784;50.94667800;7.08448400;2023-10-31T13:15:26;17.30;99.90
17333;DHT22;8784;50.94667800;7.08448400;2023-10-31T13:17:53;17.40;99.90
17333;DHT22;8784;50.94667800;7.08448400;2023-10-31T13:20:21;17.50;99.90
17333;DHT22;8784;50.94667800;7.08448400;2023-10-31T13:22:50;17.60;99.90
17333;DHT22;8784;50.94667800;7.08448400;2023-10-31T13:25:17;17.70;99.90
17333;DHT22;8784;50.94667800;7.08448400;2023-10-31T13:27:45;17.70;99.90
17333;DHT22;8784;50.94667800;7.08448400;2023-10-31T13:30:17;17.60;99.90
17333;DHT22;8784;50.94667800;7.08448400;2023-10-31T13:32:45;17.40;99.90
17333;DHT22;8784;50.94667800;7.08448400;2023-10-31T13:35:12;17.40;99.90
17333;DHT22;8784;50.94667800;7.08448400;2023-10-31T13:37:40;17.30;99.90
17333;DHT22;8784;50.94667800;7.08448400;2023-10-31T13:40:17;17.20;99.90
17333;DHT22;8784;50.94667800;7.08448400;2023-10-31T13:42:45;17.20;99.90